createdAt,value
2023-04-07T00:00:50.744Z,0.19
2023-04-07T00:03:21.393Z,0.15
2023-04-07T00:05:49.444Z,0.12
2023-04-07T00:08:17.534Z,0.09
2023-04-07T00:10:45.273Z,0.06
2023-04-07T00:13:13.239Z,0.03
2023-04-07T00:15:41.341Z,0.00
2023-04-07T00:18:09.047Z,-0.02
2023-04-07T00:20:37.165Z,-0.01
2023-04-07T00:23:04.975Z,-0.01
2023-04-07T00:25:33.040Z,-0.02
2023-04-07T00:28:00.711Z,-0.06
2023-04-07T00:30:28.731Z,-0.11
2023-04-07T00:32:56.677Z,-0.13
2023-04-07T00:35:24.373Z,-0.17
2023-04-07T00:37:52.343Z,-0.20
2023-04-07T00:40:20.537Z,-0.22
2023-04-07T00:42:49.338Z,-0.24
2023-04-07T00:45:17.288Z,-0.23
2023-04-07T00:47:45.205Z,-0.22
2023-04-07T00:50:12.891Z,-0.19
2023-04-07T00:52:41.512Z,-0.17
2023-04-07T00:55:10.984Z,-0.16
2023-04-07T00:57:38.838Z,-0.15
2023-04-07T01:00:08.286Z,-0.13
2023-04-07T01:02:53.752Z,-0.11
2023-04-07T01:05:43.930Z,-0.09
2023-04-07T01:08:40.552Z,-0.08
2023-04-07T01:11:21.953Z,-0.07
2023-04-07T01:13:52.348Z,-0.07
2023-04-07T01:16:36.710Z,-0.10
2023-04-07T01:19:20.193Z,-0.13
2023-04-07T01:21:52.515Z,-0.14
2023-04-07T01:25:11.755Z,-0.17
2023-04-07T01:28:14.275Z,-0.18
2023-04-07T01:30:44.782Z,-0.16
2023-04-07T01:33:14.907Z,-0.19
2023-04-07T01:35:43.907Z,-0.22
2023-04-07T01:38:12.899Z,-0.19
2023-04-07T01:40:41.264Z,-0.18
2023-04-07T01:43:10.959Z,-0.20
2023-04-07T01:45:41.507Z,-0.25
2023-04-07T01:48:10.555Z,-0.28
2023-04-07T01:50:39.304Z,-0.30
2023-04-07T01:53:08.348Z,-0.44
2023-04-07T01:55:38.201Z,-0.34
2023-04-07T01:58:08.107Z,-0.36
2023-04-07T02:00:37.816Z,-0.38
2023-04-07T02:03:20.522Z,-0.39
2023-04-07T02:05:50.725Z,-0.40
2023-04-07T02:08:21.911Z,-0.42
2023-04-07T02:10:51.558Z,-0.43
2023-04-07T02:13:20.988Z,-0.44
2023-04-07T02:15:51.363Z,-0.44
2023-04-07T02:18:20.844Z,-0.44
2023-04-07T02:20:50.757Z,-0.44
2023-04-07T02:23:18.756Z,-0.43
2023-04-07T02:25:46.766Z,-0.45
2023-04-07T02:28:15.126Z,-0.44
2023-04-07T02:30:42.922Z,-0.45
2023-04-07T02:33:10.801Z,-0.52
2023-04-07T02:35:38.534Z,-0.60
2023-04-07T02:38:06.427Z,-0.65
2023-04-07T02:40:36.253Z,-0.68
2023-04-07T02:43:04.795Z,-0.70
2023-04-07T02:45:34.137Z,-0.70
2023-04-07T02:48:02.107Z,-0.74
2023-04-07T02:50:30.306Z,-0.74
2023-04-07T02:52:58.088Z,-0.75
2023-04-07T02:55:26.150Z,-0.76
2023-04-07T02:57:53.891Z,-0.77
2023-04-07T03:00:25.019Z,-0.82
2023-04-07T03:03:01.388Z,-0.86
2023-04-07T03:05:31.002Z,-0.87
2023-04-07T03:08:00.855Z,-0.86
2023-04-07T03:10:29.271Z,-0.84
2023-04-07T03:12:57.519Z,-0.81
2023-04-07T03:15:25.343Z,-0.80
2023-04-07T03:17:53.887Z,-0.80
2023-04-07T03:20:22.152Z,-0.80
2023-04-07T03:22:50.125Z,-0.78
2023-04-07T03:25:19.694Z,-0.79
2023-04-07T03:27:50.502Z,-0.83
2023-04-07T03:30:19.056Z,-0.83
2023-04-07T03:32:47.000Z,-0.84
2023-04-07T03:35:14.905Z,-0.82
2023-04-07T03:37:44.106Z,-0.79
2023-04-07T03:40:14.178Z,-0.75
2023-04-07T03:42:42.925Z,-0.72
2023-04-07T03:45:11.953Z,-0.71
2023-04-07T03:47:42.782Z,-0.69
2023-04-07T03:50:11.309Z,-0.70
2023-04-07T03:52:41.203Z,-0.71
2023-04-07T03:55:10.908Z,-0.74
2023-04-07T03:57:38.680Z,-0.74
2023-04-07T04:00:08.656Z,-0.74
2023-04-07T04:02:38.692Z,-0.72
2023-04-07T04:05:08.587Z,-0.68
2023-04-07T04:07:36.342Z,-0.68
2023-04-07T04:10:07.573Z,-0.66
2023-04-07T04:12:37.159Z,-0.64
2023-04-07T04:15:08.038Z,-0.62
2023-04-07T04:17:36.108Z,-0.61
2023-04-07T04:20:05.961Z,-0.57
2023-04-07T04:22:38.719Z,-0.53
2023-04-07T04:25:08.216Z,-0.47
2023-04-07T04:27:35.969Z,-0.45
2023-04-07T04:30:07.600Z,-0.46
2023-04-07T04:32:37.216Z,-0.43
2023-04-07T04:35:06.369Z,-0.45
2023-04-07T04:37:36.087Z,-0.48
2023-04-07T04:40:08.038Z,-0.47
2023-04-07T04:42:36.710Z,-0.46
2023-04-07T04:45:06.215Z,-0.43
2023-04-07T04:47:34.253Z,-0.43
2023-04-07T04:50:02.621Z,-0.40
2023-04-07T04:52:32.191Z,-0.37
2023-04-07T04:55:00.789Z,-0.32
2023-04-07T04:57:29.022Z,-0.27
2023-04-07T04:59:57.229Z,-0.18
2023-04-07T05:02:26.419Z,-0.11
2023-04-07T05:04:54.877Z,-0.03
2023-04-07T05:07:25.038Z,0.06
2023-04-07T05:09:53.059Z,0.13
2023-04-07T05:12:21.988Z,0.21
2023-04-07T05:14:51.611Z,0.26
2023-04-07T05:17:21.351Z,0.32
2023-04-07T05:19:52.220Z,0.40
2023-04-07T05:22:22.806Z,0.47
2023-04-07T05:24:55.054Z,0.51
2023-04-07T05:27:23.996Z,0.53
2023-04-07T05:29:53.977Z,0.54
2023-04-07T05:32:29.959Z,0.56
2023-04-07T05:34:58.322Z,0.60
2023-04-07T05:37:28.130Z,0.64
2023-04-07T05:39:56.417Z,0.69
2023-04-07T05:42:24.698Z,0.75
2023-04-07T05:44:54.022Z,0.83
2023-04-07T05:47:22.615Z,0.88
2023-04-07T05:49:52.397Z,0.93
2023-04-07T05:52:20.816Z,0.91
2023-04-07T05:54:50.356Z,0.90
2023-04-07T05:57:18.615Z,0.91
2023-04-07T05:59:47.230Z,0.92
2023-04-07T06:02:15.919Z,0.94
2023-04-07T06:04:46.062Z,1.00
2023-04-07T06:07:15.880Z,1.05
2023-04-07T06:09:43.802Z,1.13
2023-04-07T06:12:15.549Z,1.22
2023-04-07T06:14:44.692Z,1.28
2023-04-07T06:17:18.542Z,1.35
2023-04-07T06:19:47.707Z,1.43
2023-04-07T06:22:15.842Z,1.63
2023-04-07T06:24:43.856Z,1.85
2023-04-07T06:27:12.329Z,2.07
2023-04-07T06:29:41.276Z,2.26
2023-04-07T06:32:09.534Z,2.40
2023-04-07T06:34:38.243Z,2.53
2023-04-07T06:37:06.337Z,2.59
2023-04-07T06:39:34.080Z,2.72
2023-04-07T06:42:02.017Z,2.90
2023-04-07T06:44:29.759Z,3.04
2023-04-07T06:46:57.524Z,3.11
2023-04-07T06:49:25.586Z,3.21
2023-04-07T06:51:53.891Z,3.31
2023-04-07T06:54:21.871Z,3.24
2023-04-07T06:56:50.665Z,3.22
2023-04-07T06:59:18.766Z,3.26
2023-04-07T07:01:47.332Z,3.38
2023-04-07T07:04:15.391Z,3.49
2023-04-07T07:06:43.634Z,3.64
2023-04-07T07:09:11.683Z,3.79
2023-04-07T07:11:39.848Z,3.91
2023-04-07T07:14:07.761Z,3.99
2023-04-07T07:16:36.767Z,4.05
2023-04-07T07:19:04.954Z,4.06
2023-04-07T07:21:32.852Z,4.08
2023-04-07T07:24:00.600Z,4.14
2023-04-07T07:26:32.069Z,4.17
2023-04-07T07:29:01.472Z,4.19
2023-04-07T07:31:30.712Z,4.22
2023-04-07T07:34:00.544Z,4.25
2023-04-07T07:36:28.526Z,4.18
2023-04-07T07:38:56.508Z,4.10
2023-04-07T07:41:24.172Z,4.18
2023-04-07T07:43:52.465Z,4.35
2023-04-07T07:46:20.466Z,4.49
2023-04-07T07:48:48.229Z,4.58
2023-04-07T07:51:17.854Z,4.65
2023-04-07T07:53:45.884Z,4.74
2023-04-07T07:56:14.212Z,4.82
2023-04-07T07:58:42.566Z,4.92
2023-04-07T08:01:13.359Z,5.01
2023-04-07T08:03:42.081Z,5.11
2023-04-07T08:06:11.606Z,5.20
2023-04-07T08:08:39.961Z,5.29
2023-04-07T08:11:07.963Z,5.41
2023-04-07T08:13:36.179Z,5.61
2023-04-07T08:16:04.734Z,5.79
2023-04-07T08:18:33.036Z,5.97
2023-04-07T08:21:00.978Z,6.02
2023-04-07T08:23:28.694Z,5.97
2023-04-07T08:25:56.384Z,5.94
2023-04-07T08:28:27.164Z,5.90
2023-04-07T08:30:55.094Z,5.84
2023-04-07T08:33:22.993Z,5.82
2023-04-07T08:35:50.840Z,5.84
2023-04-07T08:38:18.854Z,5.71
2023-04-07T08:40:48.275Z,5.46
2023-04-07T08:43:19.465Z,5.54
2023-04-07T08:45:48.162Z,5.47
2023-04-07T08:48:20.811Z,5.42
2023-04-07T08:50:52.247Z,5.52
2023-04-07T08:53:24.099Z,5.56
2023-04-07T08:55:53.095Z,5.63
2023-04-07T08:58:21.837Z,5.73
2023-04-07T09:00:50.868Z,5.80
2023-04-07T09:03:21.050Z,5.85
2023-04-07T09:05:50.864Z,5.89
2023-04-07T09:08:20.730Z,5.92
2023-04-07T09:10:48.653Z,5.82
2023-04-07T09:13:16.576Z,5.84
2023-04-07T09:15:44.902Z,5.79
2023-04-07T09:18:14.895Z,5.74
2023-04-07T09:21:07.499Z,5.66
2023-04-07T09:23:42.057Z,5.54
2023-04-07T09:26:23.981Z,5.57
2023-04-07T09:29:02.585Z,5.65
2023-04-07T09:31:53.255Z,5.59
2023-04-07T09:34:31.477Z,5.57
2023-04-07T09:37:00.905Z,5.61
2023-04-07T09:39:30.880Z,5.66
2023-04-07T09:41:58.775Z,5.57
2023-04-07T09:44:26.875Z,5.47
2023-04-07T09:46:58.309Z,5.44
2023-04-07T09:49:26.837Z,5.45
2023-04-07T09:52:00.238Z,5.51
2023-04-07T09:54:40.822Z,5.51
2023-04-07T09:57:13.395Z,5.45
2023-04-07T09:59:44.147Z,5.56
2023-04-07T10:02:12.773Z,5.60
2023-04-07T10:04:44.626Z,5.74
2023-04-07T10:07:13.004Z,5.88
2023-04-07T10:09:41.026Z,6.07
2023-04-07T10:12:12.414Z,6.11
2023-04-07T10:14:47.264Z,6.10
2023-04-07T10:17:20.176Z,6.16
2023-04-07T10:19:49.276Z,6.24
2023-04-07T10:22:18.940Z,6.37
2023-04-07T10:25:14.284Z,6.34
2023-04-07T10:27:53.449Z,6.20
2023-04-07T10:30:28.971Z,6.00
2023-04-07T10:32:57.391Z,5.81
2023-04-07T10:35:26.268Z,5.84
2023-04-07T10:38:11.320Z,5.92
2023-04-07T10:40:41.061Z,5.95
2023-04-07T10:43:11.090Z,5.89
2023-04-07T10:45:53.046Z,5.88
2023-04-07T10:48:22.226Z,5.94
2023-04-07T10:51:13.766Z,6.03
2023-04-07T10:54:22.430Z,5.95
2023-04-07T10:57:10.688Z,5.96
2023-04-07T11:00:11.189Z,6.05
2023-04-07T11:02:40.236Z,6.15
2023-04-07T11:05:08.536Z,6.25
2023-04-07T11:07:49.842Z,6.24
2023-04-07T11:10:18.845Z,6.17
2023-04-07T11:13:02.934Z,6.15
2023-04-07T11:15:37.202Z,6.11
2023-04-07T11:18:11.696Z,6.17
2023-04-07T11:20:45.595Z,6.19
2023-04-07T11:23:15.350Z,6.11
2023-04-07T11:25:46.066Z,5.89
2023-04-07T11:28:15.138Z,5.74
2023-04-07T11:31:00.664Z,5.43
2023-04-07T11:33:31.796Z,5.22
2023-04-07T11:36:02.473Z,5.16
2023-04-07T11:38:37.802Z,5.16
2023-04-07T11:41:15.034Z,5.16
2023-04-07T11:43:43.058Z,5.14
2023-04-07T11:46:18.442Z,5.21
2023-04-07T11:48:46.994Z,5.28
2023-04-07T11:51:22.176Z,5.37
2023-04-07T11:53:57.149Z,5.38
2023-04-07T11:56:27.639Z,5.28
2023-04-07T11:58:55.821Z,5.22
2023-04-07T12:01:26.866Z,5.24
2023-04-07T12:03:59.623Z,5.23
2023-04-07T12:06:34.636Z,5.29
2023-04-07T12:09:05.122Z,5.40
2023-04-07T12:11:34.193Z,5.48
2023-04-07T12:14:04.224Z,5.54
2023-04-07T12:16:32.453Z,5.61
2023-04-07T12:19:00.529Z,5.69
2023-04-07T12:21:28.568Z,5.70
2023-04-07T12:23:56.662Z,5.63
2023-04-07T12:26:24.973Z,5.40
2023-04-07T12:28:58.132Z,5.27
2023-04-07T12:31:27.532Z,5.22
2023-04-07T12:33:56.669Z,5.49
2023-04-07T12:36:27.216Z,5.64
2023-04-07T12:38:56.271Z,5.74
2023-04-07T12:41:25.049Z,5.87
2023-04-07T12:43:53.238Z,5.84
2023-04-07T12:46:21.350Z,5.65
2023-04-07T12:48:49.178Z,5.63
2023-04-07T12:51:17.175Z,5.57
2023-04-07T12:53:47.272Z,5.55
2023-04-07T12:56:17.700Z,5.55
2023-04-07T12:58:45.692Z,5.54
2023-04-07T13:01:14.061Z,5.48
2023-04-07T13:03:42.596Z,5.54
2023-04-07T13:06:11.202Z,5.60
2023-04-07T13:08:40.560Z,5.63
2023-04-07T13:11:09.892Z,5.66
2023-04-07T13:13:44.206Z,5.76
2023-04-07T13:16:17.422Z,5.88
2023-04-07T13:18:46.288Z,5.94
2023-04-07T13:23:53.454Z,5.78
2023-04-07T13:26:14.318Z,5.60
2023-04-07T13:28:43.908Z,5.49
2023-04-07T13:31:13.908Z,5.53
2023-04-07T13:33:45.110Z,5.56
2023-04-07T13:36:12.939Z,5.55
2023-04-07T13:38:42.088Z,5.53
2023-04-07T13:41:09.986Z,5.49
2023-04-07T13:43:37.913Z,5.56
2023-04-07T13:46:11.733Z,5.61
2023-04-07T13:48:35.990Z,5.67
2023-04-07T13:51:04.112Z,5.81
2023-04-07T13:53:32.049Z,5.95
2023-04-07T13:56:00.725Z,6.07
2023-04-07T13:58:32.041Z,6.02
2023-04-07T14:01:01.509Z,5.87
2023-04-07T14:03:31.232Z,5.79
2023-04-07T14:06:00.704Z,5.77
2023-04-07T14:08:28.770Z,5.70
2023-04-07T14:10:56.639Z,5.65
2023-04-07T14:13:24.856Z,5.59
2023-04-07T14:15:53.438Z,5.50
2023-04-07T14:18:21.119Z,5.38
2023-04-07T14:20:48.937Z,5.30
2023-04-07T14:23:26.326Z,5.29
2023-04-07T14:25:47.290Z,5.23
2023-04-07T14:28:15.011Z,5.17
2023-04-07T14:30:43.174Z,5.17
2023-04-07T14:33:11.145Z,5.21
2023-04-07T14:35:39.186Z,5.26
2023-04-07T14:38:07.068Z,5.31
2023-04-07T14:40:35.075Z,5.34
2023-04-07T14:43:07.225Z,5.40
2023-04-07T14:45:35.269Z,5.46
2023-04-07T14:48:03.361Z,5.48
2023-04-07T14:50:33.250Z,5.50
2023-04-07T14:53:01.890Z,5.55
2023-04-07T14:55:30.665Z,5.58
2023-04-07T14:58:01.468Z,5.59
2023-04-07T15:00:29.228Z,5.54
2023-04-07T15:10:18.057Z,5.28
2023-04-07T15:12:48.421Z,5.30
2023-04-07T15:15:17.371Z,5.24
2023-04-07T15:17:45.695Z,5.16
2023-04-07T15:20:15.499Z,5.09
2023-04-07T15:22:43.962Z,5.06
2023-04-07T15:25:11.950Z,5.04
2023-04-07T15:27:41.316Z,5.01
2023-04-07T15:30:09.778Z,5.01
2023-04-07T15:32:37.859Z,5.02
2023-04-07T15:35:07.023Z,5.00
2023-04-07T15:37:34.965Z,4.98
2023-04-07T15:40:03.285Z,4.98
2023-04-07T15:42:33.077Z,4.94
2023-04-07T15:45:01.300Z,4.90
2023-04-07T15:47:29.304Z,4.87
2023-04-07T15:49:57.278Z,4.82
2023-04-07T15:52:25.202Z,4.77
2023-04-07T15:54:55.485Z,4.71
2023-04-07T15:57:23.706Z,4.65
2023-04-07T15:59:51.831Z,4.57
2023-04-07T16:02:21.286Z,4.51
2023-04-07T16:04:49.386Z,4.50
2023-04-07T16:07:17.245Z,4.51
2023-04-07T16:09:45.446Z,4.53
2023-04-07T16:12:13.552Z,4.52
2023-04-07T16:14:41.823Z,4.51
2023-04-07T16:17:11.126Z,4.52
2023-04-07T16:19:39.284Z,4.49
2023-04-07T16:22:07.182Z,4.46
2023-04-07T16:24:36.860Z,4.44
2023-04-07T16:27:04.874Z,4.39
2023-04-07T16:29:33.322Z,4.34
2023-04-07T16:32:04.423Z,4.30
2023-04-07T16:34:32.466Z,4.28
2023-04-07T16:37:02.162Z,4.25
2023-04-07T16:39:31.337Z,4.25
2023-04-07T16:42:00.677Z,4.25
2023-04-07T16:44:28.999Z,4.23
2023-04-07T16:46:56.908Z,4.21
2023-04-07T16:49:26.910Z,4.18
2023-04-07T16:51:54.910Z,4.17
2023-04-07T16:54:23.061Z,4.17
2023-04-07T16:56:51.114Z,4.14
2023-04-07T16:59:21.634Z,4.12
2023-04-07T17:01:51.804Z,4.08
2023-04-07T17:04:21.011Z,4.03
2023-04-07T17:06:49.186Z,3.99
2023-04-07T17:09:18.537Z,3.95
2023-04-07T17:11:50.250Z,3.92
2023-04-07T17:14:18.156Z,3.91
2023-04-07T17:16:46.007Z,3.92
2023-04-07T17:19:14.307Z,3.93
2023-04-07T17:21:42.549Z,3.91
2023-04-07T17:24:13.486Z,3.90
2023-04-07T17:26:48.452Z,3.90
2023-04-07T17:29:20.560Z,3.90
2023-04-07T17:31:51.592Z,3.89
2023-04-07T17:34:19.258Z,3.88
2023-04-07T17:36:46.995Z,3.87
2023-04-07T17:39:15.126Z,3.84
2023-04-07T17:41:42.992Z,3.86
2023-04-07T17:44:10.759Z,3.84
2023-04-07T17:46:38.504Z,3.82
2023-04-07T17:49:06.105Z,3.80
2023-04-07T17:51:35.200Z,3.77
2023-04-07T17:54:05.289Z,3.75
2023-04-07T17:56:33.449Z,3.73
2023-04-07T17:59:02.107Z,3.70
2023-04-07T18:01:30.638Z,3.64
2023-04-07T18:03:59.562Z,3.62
2023-04-07T18:06:28.109Z,3.59
2023-04-07T18:09:00.355Z,3.55
2023-04-07T18:11:28.782Z,3.52
2023-04-07T18:13:56.760Z,3.49
2023-04-07T18:16:26.033Z,3.47
2023-04-07T18:18:53.844Z,3.44
2023-04-07T18:21:22.970Z,3.42
2023-04-07T18:23:52.637Z,3.41
2023-04-07T18:26:22.065Z,3.38
2023-04-07T18:28:50.110Z,3.33
2023-04-07T18:31:22.491Z,3.31
2023-04-07T18:33:52.316Z,3.29
2023-04-07T18:36:22.255Z,3.29
2023-04-07T18:38:53.267Z,3.28
2023-04-07T18:41:30.225Z,3.26
2023-04-07T18:44:04.961Z,3.24
2023-04-07T18:46:35.369Z,3.23
2023-04-07T18:49:06.770Z,3.21
2023-04-07T18:51:38.841Z,3.20
2023-04-07T18:54:09.434Z,3.20
2023-04-07T18:56:41.448Z,3.18
2023-04-07T18:59:09.690Z,3.17
2023-04-07T19:01:38.609Z,3.16
2023-04-07T19:04:07.355Z,3.16
2023-04-07T19:06:38.168Z,3.17
2023-04-07T19:09:06.445Z,3.17
2023-04-07T19:11:35.052Z,3.18
2023-04-07T19:14:04.387Z,3.18
2023-04-07T19:16:33.739Z,3.17
2023-04-07T19:19:02.464Z,3.16
2023-04-07T19:21:32.093Z,3.15
2023-04-07T19:24:00.329Z,3.14
2023-04-07T19:26:29.802Z,3.14
2023-04-07T19:28:57.753Z,3.11
2023-04-07T19:31:26.072Z,3.10
2023-04-07T19:33:54.002Z,3.11
2023-04-07T19:36:23.132Z,3.11
2023-04-07T19:38:54.854Z,3.10
2023-04-07T19:41:22.981Z,3.09
2023-04-07T19:43:53.910Z,3.11
2023-04-07T19:46:21.811Z,3.10
2023-04-07T19:48:50.072Z,3.11
2023-04-07T19:51:17.913Z,3.12
2023-04-07T19:53:46.201Z,3.11
2023-04-07T19:56:14.288Z,3.11
2023-04-07T19:58:42.419Z,3.12
2023-04-07T20:01:17.705Z,3.14
2023-04-07T20:03:46.324Z,3.14
2023-04-07T20:06:20.520Z,3.15
2023-04-07T20:08:48.843Z,3.15
2023-04-07T20:11:17.710Z,3.16
2023-04-07T20:13:48.682Z,3.15
2023-04-07T20:16:23.143Z,3.15
2023-04-07T20:18:52.274Z,3.16
2023-04-07T20:21:21.766Z,3.14
2023-04-07T20:23:52.415Z,3.14
2023-04-07T20:26:23.147Z,3.15
2023-04-07T20:28:51.754Z,3.14
2023-04-07T20:31:21.263Z,3.14
2023-04-07T20:33:52.930Z,3.14
2023-04-07T20:36:21.009Z,3.13
2023-04-07T20:38:49.410Z,3.10
2023-04-07T20:41:18.550Z,3.12
2023-04-07T20:43:46.670Z,3.14
2023-04-07T20:46:15.628Z,3.16
2023-04-07T20:48:44.619Z,3.16
2023-04-07T20:51:13.426Z,3.17
2023-04-07T20:53:41.870Z,3.16
2023-04-07T20:56:10.350Z,3.17
2023-04-07T20:58:38.575Z,3.18
2023-04-07T21:01:08.036Z,3.04
2023-04-07T21:03:36.396Z,3.20
2023-04-07T21:06:06.796Z,3.22
2023-04-07T21:08:36.834Z,3.24
2023-04-07T21:11:04.913Z,3.26
2023-04-07T21:13:36.062Z,3.29
2023-04-07T21:16:09.721Z,3.30
2023-04-07T21:18:38.389Z,3.28
2023-04-07T21:21:07.799Z,3.26
2023-04-07T21:23:36.122Z,3.26
2023-04-07T21:26:04.241Z,3.22
2023-04-07T21:28:32.630Z,3.20
2023-04-07T21:31:02.992Z,3.18
2023-04-07T21:33:31.725Z,3.17
2023-04-07T21:36:01.330Z,3.17
2023-04-07T21:38:31.239Z,3.17
2023-04-07T21:40:59.924Z,3.17
2023-04-07T21:43:29.226Z,3.17
2023-04-07T21:45:57.180Z,3.16
2023-04-07T21:48:24.960Z,3.15
2023-04-07T21:50:53.340Z,3.15
2023-04-07T21:53:25.272Z,3.16
2023-04-07T21:55:55.297Z,3.16
2023-04-07T21:58:26.541Z,3.14
2023-04-07T22:00:58.211Z,3.10
2023-04-07T22:03:29.125Z,3.06
2023-04-07T22:06:00.686Z,3.05
2023-04-07T22:08:28.741Z,3.04
2023-04-07T22:11:00.666Z,3.03
2023-04-07T22:13:31.982Z,3.02
2023-04-07T22:16:01.792Z,3.00
2023-04-07T22:18:30.495Z,2.98
2023-04-07T22:20:59.204Z,2.96
2023-04-07T22:23:29.784Z,2.79
2023-04-07T22:25:57.485Z,2.91
2023-04-07T22:28:25.465Z,2.91
2023-04-07T22:30:53.390Z,2.91
2023-04-07T22:33:21.129Z,2.93
2023-04-07T22:35:49.011Z,2.92
2023-04-07T22:38:17.422Z,2.93
2023-04-07T22:40:45.438Z,2.93
2023-04-07T22:43:13.266Z,2.95
2023-04-07T22:45:41.247Z,2.95
2023-04-07T22:48:09.189Z,2.95
2023-04-07T22:50:37.122Z,2.95
2023-04-07T22:53:06.871Z,2.95
2023-04-07T22:55:35.789Z,2.94
2023-04-07T22:58:03.612Z,2.91
2023-04-07T23:00:31.648Z,2.87
2023-04-07T23:02:59.654Z,2.87
2023-04-07T23:05:27.738Z,2.84
2023-04-07T23:07:55.755Z,2.83
2023-04-07T23:10:23.854Z,2.81
2023-04-07T23:12:53.627Z,2.79
2023-04-07T23:15:21.435Z,2.76
2023-04-07T23:17:49.300Z,2.75
2023-04-07T23:20:17.354Z,2.74
2023-04-07T23:22:45.087Z,2.75
2023-04-07T23:25:13.131Z,2.75
2023-04-07T23:27:40.980Z,2.73
2023-04-07T23:30:10.004Z,2.70
2023-04-07T23:32:38.038Z,2.67
2023-04-07T23:35:06.605Z,2.65
2023-04-07T23:37:34.642Z,2.62
2023-04-07T23:40:02.544Z,2.61
2023-04-07T23:42:30.697Z,2.59
2023-04-07T23:44:58.369Z,2.57
2023-04-07T23:47:26.578Z,2.57
2023-04-07T23:49:54.443Z,2.58
2023-04-07T23:52:23.091Z,2.58
2023-04-07T23:54:51.124Z,2.60
2023-04-07T23:57:19.204Z,2.61
2023-04-07T23:59:47.113Z,2.62
